Time;durP1;ratioP1;P1;durP2;ratioP2;P2;SDS_P1;SDS_P2;PMS_P1;PMS_P2;Temp;Humidity;BMP_temperature;BMP_pressure;BME280_temperature;BME280_humidity;BME280_pressure;Samples;Min_cycle;Max_cycle;Signal;HPM_P1;HPM_P2
2021/04/01 00:02:11;;;;;;;5.50;4.77;;;;;;;16.97;43.28;96684.25;5135819;27;20157;-60
2021/04/01 00:04:36;;;;;;;6.60;4.77;;;;;;;16.92;43.61;96676.25;5135573;27;20219;-61
2021/04/01 00:07:02;;;;;;;10.17;4.77;;;;;;;16.87;44.27;96669.06;5135345;27;20633;-62
2021/04/01 00:09:28;;;;;;;6.23;5.00;;;;;;;16.72;45.31;96671.66;5122381;27;20200;-61
2021/04/01 00:11:53;;;;;;;8.50;5.97;;;;;;;16.79;45.28;96674.06;5118710;27;20192;-62
2021/04/01 00:14:21;;;;;;;4.77;4.37;;;;;;;16.73;45.94;96667.13;5114697;27;20256;-61
2021/04/01 00:16:46;;;;;;;6.57;4.70;;;;;;;16.71;45.16;96666.56;5114146;28;20193;-62
2021/04/01 00:19:13;;;;;;;6.77;4.73;;;;;;;16.69;45.45;96669.47;5114220;28;20443;-62
2021/04/01 00:21:38;;;;;;;7.17;5.10;;;;;;;16.57;45.60;96660.13;5115044;28;20177;-61
2021/04/01 00:24:04;;;;;;;5.23;4.73;;;;;;;16.56;45.74;96663.84;5126135;27;20429;-61
2021/04/01 00:26:29;;;;;;;7.93;5.00;;;;;;;16.56;46.16;96650.56;5135566;27;20677;-62
2021/04/01 00:28:55;;;;;;;6.93;5.23;;;;;;;16.48;45.76;96654.50;5134575;27;20235;-61
2021/04/01 00:31:20;;;;;;;5.47;4.63;;;;;;;16.44;45.83;96651.53;5135301;27;20169;-61
2021/04/01 00:33:45;;;;;;;9.00;5.00;;;;;;;16.37;46.32;96650.94;5130097;27;20176;-61
2021/04/01 00:36:11;;;;;;;5.70;4.90;;;;;;;16.37;46.04;96656.25;5114425;28;20552;-62
2021/04/01 00:38:36;;;;;;;6.73;5.27;;;;;;;16.31;46.04;96657.25;5123370;27;20196;-61
2021/04/01 00:41:02;;;;;;;6.17;4.90;;;;;;;16.28;45.64;96652.47;5130070;27;20635;-61
2021/04/01 00:43:27;;;;;;;8.07;4.33;;;;;;;16.24;46.41;96661.97;5134979;27;20165;-61
2021/04/01 00:45:53;;;;;;;9.30;5.80;;;;;;;16.23;46.76;96657.72;5135276;27;20243;-62
2021/04/01 00:48:18;;;;;;;9.87;6.23;;;;;;;16.24;46.77;96655.88;5134226;27;20210;-61
2021/04/01 00:50:44;;;;;;;6.93;5.40;;;;;;;16.19;46.88;96661.94;5134969;27;20192;-62
2021/04/01 00:53:10;;;;;;;6.13;5.03;;;;;;;16.17;47.41;96653.44;5132581;27;20175;-60
2021/04/01 00:55:35;;;;;;;6.30;5.20;;;;;;;16.15;46.83;96646.78;5134736;27;20185;-62
2021/04/01 00:58:02;;;;;;;6.40;4.93;;;;;;;16.20;46.73;96650.28;5127891;27;20260;-61
2021/04/01 01:00:31;;;;;;;6.60;5.53;;;;;;;16.22;46.77;96637.56;5121596;27;20177;-61
2021/04/01 01:02:56;;;;;;;7.07;5.40;;;;;;;16.25;47.42;96641.56;5134606;27;20398;-62
2021/04/01 01:05:23;;;;;;;6.03;4.80;;;;;;;16.28;47.56;96636.56;5134744;27;20401;-61
2021/04/01 01:07:49;;;;;;;10.10;5.40;;;;;;;16.29;48.11;96640.00;5134155;27;20643;-62
2021/04/01 01:10:21;;;;;;;8.23;5.67;;;;;;;16.17;49.08;96644.69;5118095;27;20412;-60
2021/04/01 01:12:47;;;;;;;6.90;4.73;;;;;;;16.12;48.72;96642.81;5115067;28;20248;-62
2021/04/01 01:15:14;;;;;;;6.00;5.20;;;;;;;16.13;48.56;96636.44;5113982;28;20487;-62
2021/04/01 01:17:39;;;;;;;13.07;5.93;;;;;;;16.18;48.20;96636.47;5124555;27;20176;-62
2021/04/01 01:20:08;;;;;;;9.20;5.67;;;;;;;16.16;48.50;96633.28;5134346;27;20479;-62
2021/04/01 01:22:36;;;;;;;11.03;6.40;;;;;;;16.17;48.37;96631.44;5134369;27;20168;-62
2021/04/01 01:25:06;;;;;;;8.00;5.60;;;;;;;16.15;47.27;96629.03;5134354;27;20430;-62
2021/04/01 01:27:32;;;;;;;13.30;6.17;;;;;;;16.14;47.83;96630.06;5133428;27;20418;-60
2021/04/01 01:29:57;;;;;;;6.10;5.00;;;;;;;16.11;48.02;96627.13;5117900;27;20431;-62
2021/04/01 01:32:23;;;;;;;7.80;5.77;;;;;;;16.12;48.31;96624.25;5133608;27;20233;-61
2021/04/01 01:34:48;;;;;;;8.10;5.27;;;;;;;16.13;48.15;96617.06;5138691;27;20263;-62
2021/04/01 01:37:14;;;;;;;8.43;6.03;;;;;;;16.13;48.06;96625.84;5129183;27;20280;-62
2021/04/01 01:39:40;;;;;;;7.60;5.90;;;;;;;16.06;48.54;96627.91;5117624;28;20672;-61
2021/04/01 01:42:06;;;;;;;9.60;6.20;;;;;;;16.04;48.35;96623.91;5117697;28;20403;-65
2021/04/01 01:44:32;;;;;;;7.60;5.10;;;;;;;16.07;47.84;96620.75;5137750;27;20739;-62
2021/04/01 01:46:59;;;;;;;7.80;5.97;;;;;;;16.04;48.19;96614.09;5137908;27;20636;-61
2021/04/01 01:49:24;;;;;;;8.47;6.10;;;;;;;15.99;49.15;96622.00;5138196;27;20431;-62
2021/04/01 01:51:50;;;;;;;6.07;5.47;;;;;;;16.02;48.80;96616.19;5138360;27;20397;-61
2021/04/01 01:54:16;;;;;;;9.13;6.47;;;;;;;15.96;49.14;96603.94;5138107;27;20168;-61
2021/04/01 01:56:41;;;;;;;12.53;6.80;;;;;;;15.93;48.83;96607.13;5136241;27;20462;-60
2021/04/01 01:59:07;;;;;;;6.13;5.37;;;;;;;15.93;48.45;96611.59;5137655;27;20216;-62
2021/04/01 02:01:33;;;;;;;6.80;5.80;;;;;;;15.91;48.32;96603.09;5138039;27;20252;-62
2021/04/01 02:04:03;;;;;;;8.13;5.67;;;;;;;15.90;48.04;96610.28;5119974;27;20216;-62
2021/04/01 02:06:30;;;;;;;13.50;9.33;;;;;;;15.63;44.97;96609.50;5117582;27;20415;-60
2021/04/01 02:08:57;;;;;;;16.10;9.20;;;;;;;15.68;44.50;96598.94;5117624;27;20438;-61
2021/04/01 02:11:23;;;;;;;21.27;9.93;;;;;;;15.71;43.35;96597.66;5135946;27;20820;-61
2021/04/01 02:13:49;;;;;;;11.20;7.70;;;;;;;15.90;44.21;96599.69;5138296;27;20438;-60
2021/04/01 02:16:14;;;;;;;12.20;9.27;;;;;;;15.99;43.25;96598.16;5137697;27;20193;-61
2021/04/01 02:18:40;;;;;;;18.90;9.60;;;;;;;16.04;43.10;96589.44;5135557;27;20275;-62
2021/04/01 02:21:08;;;;;;;13.00;9.20;;;;;;;15.93;42.63;96588.56;5137612;27;20197;-60
2021/04/01 02:23:35;;;;;;;20.73;10.37;;;;;;;15.83;42.76;96585.84;5137690;27;20409;-61
2021/04/01 02:26:02;;;;;;;13.80;8.67;;;;;;;15.89;42.95;96584.81;5137417;27;20399;-62
2021/04/01 02:28:29;;;;;;;14.63;9.33;;;;;;;15.96;43.11;96587.28;5137040;27;20796;-62
2021/04/01 02:31:00;;;;;;;12.17;8.70;;;;;;;16.07;43.06;96586.28;5137359;27;20416;-62
2021/04/01 02:33:29;;;;;;;14.13;9.03;;;;;;;16.20;42.72;96585.84;5120543;27;20450;-62
2021/04/01 02:35:55;;;;;;;12.40;9.33;;;;;;;16.07;42.69;96588.94;5124767;27;20454;-61
2021/04/01 02:38:25;;;;;;;15.27;10.13;;;;;;;15.79;43.07;96587.41;5134888;27;20438;-62
2021/04/01 02:40:51;;;;;;;15.87;9.10;;;;;;;15.70;43.85;96583.59;5137619;27;20410;-62
2021/04/01 02:43:37;;;;;;;14.77;9.03;;;;;;;15.83;43.75;96577.91;5137263;27;20407;-62
2021/04/01 02:46:04;;;;;;;11.53;8.70;;;;;;;16.06;44.59;96580.19;5136970;27;20181;-62
2021/04/01 02:48:29;;;;;;;11.70;8.37;;;;;;;16.02;45.07;96579.09;5135701;27;20457;-62
2021/04/01 02:50:55;;;;;;;8.40;6.27;;;;;;;15.93;46.46;96577.97;5116676;28;20894;-62
2021/04/01 02:53:20;;;;;;;12.27;7.07;;;;;;;15.89;46.46;96582.16;5116476;28;20172;-60
2021/04/01 02:55:46;;;;;;;8.47;6.53;;;;;;;16.06;46.03;96580.19;5116279;28;20192;-60
2021/04/01 02:58:12;;;;;;;8.20;6.77;;;;;;;16.02;46.00;96579.09;5115915;27;20193;-62
2021/04/01 03:00:37;;;;;;;9.10;6.00;;;;;;;16.02;45.90;96579.09;5129021;27;20246;-61
2021/04/01 03:05:36;;;;;;;9.13;6.37;;;;;;;15.80;47.03;96583.69;5116693;27;20625;-61
2021/04/01 03:08:01;;;;;;;8.33;6.10;;;;;;;15.88;46.69;96575.28;5115907;28;20494;-62
2021/04/01 03:10:26;;;;;;;6.00;5.40;;;;;;;15.85;47.05;96575.75;5116208;28;20609;-60
2021/04/01 03:12:52;;;;;;;9.77;6.23;;;;;;;15.69;47.27;96582.00;5116313;28;20173;-62
2021/04/01 03:15:18;;;;;;;6.93;5.27;;;;;;;15.59;47.65;96576.63;5131352;27;20647;-61
2021/04/01 03:17:44;;;;;;;6.13;5.50;;;;;;;15.61;48.20;96573.72;5134405;27;20183;-62
2021/04/01 03:20:10;;;;;;;6.77;5.30;;;;;;;15.54;48.32;96573.13;5131389;27;20219;-62
2021/04/01 03:22:37;;;;;;;8.50;5.83;;;;;;;15.41;48.50;96583.09;5136813;27;20865;-60
2021/04/01 03:25:05;;;;;;;7.97;6.23;;;;;;;15.37;48.62;96581.94;5136580;27;20455;-62
2021/04/01 03:27:30;;;;;;;8.10;6.27;;;;;;;15.42;48.36;96576.72;5125944;27;20423;-62
2021/04/01 03:30:08;;;;;;;7.90;7.00;;;;;;;15.41;47.75;96577.78;5115723;27;20860;-62
2021/04/01 03:32:37;;;;;;;8.87;6.50;;;;;;;15.29;48.51;96581.59;5115899;28;20617;-61
2021/04/01 03:35:05;;;;;;;9.40;6.60;;;;;;;15.22;49.04;96573.03;5127728;27;20413;-61
2021/04/01 03:37:31;;;;;;;8.17;6.10;;;;;;;15.28;48.98;96575.50;5135970;27;20461;-62
2021/04/01 03:39:56;;;;;;;10.90;6.47;;;;;;;15.29;49.55;96578.94;5136049;27;20430;-62
2021/04/01 03:42:22;;;;;;;6.40;5.20;;;;;;;15.24;49.34;96577.03;5125494;27;20176;-62
2021/04/01 03:44:47;;;;;;;10.00;7.50;;;;;;;15.16;49.09;96582.75;5129571;27;20612;-62
2021/04/01 03:47:13;;;;;;;9.13;6.40;;;;;;;15.08;49.66;96582.41;5131263;27;20419;-62
2021/04/01 03:49:38;;;;;;;14.27;7.03;;;;;;;15.09;49.32;96573.44;5125863;27;20197;-61
2021/04/01 03:52:04;;;;;;;8.50;6.63;;;;;;;14.99;49.63;96575.97;5115421;28;20177;-62
2021/04/01 03:54:30;;;;;;;9.63;6.53;;;;;;;14.90;50.12;96585.38;5129168;27;20203;-60
2021/04/01 03:56:55;;;;;;;9.60;6.00;;;;;;;14.91;50.63;96577.19;5130373;27;20451;-60
2021/04/01 03:59:25;;;;;;;9.93;7.10;;;;;;;15.00;49.68;96578.34;5114823;28;20188;-61
2021/04/01 04:04:56;;;;;;;11.20;6.73;;;;;;;14.83;50.38;96590.88;5096862;27;20453;-60
2021/04/01 04:12:39;;;;;;;10.10;7.17;;;;;;;14.83;49.99;96587.41;5115265;28;20879;-62
2021/04/01 04:15:09;;;;;;;8.70;6.80;;;;;;;14.81;49.99;96595.59;5115108;28;20403;-62
2021/04/01 04:17:35;;;;;;;7.83;6.67;;;;;;;14.62;50.30;96594.28;5114592;28;20396;-60
2021/04/01 04:20:00;;;;;;;8.63;6.13;;;;;;;14.48;51.50;96586.94;5121324;27;20450;-63
2021/04/01 04:22:26;;;;;;;9.33;7.43;;;;;;;14.53;51.69;96590.47;5130797;27;20205;-62
2021/04/01 04:24:54;;;;;;;6.40;5.80;;;;;;;14.49;51.56;96588.56;5134866;27;20187;-62
2021/04/01 04:30:05;;;;;;;16.40;6.87;;;;;;;14.57;51.81;96581.00;5135249;27;20416;-64
2021/04/01 04:32:33;;;;;;;12.30;6.90;;;;;;;14.59;51.23;96578.91;5114764;27;20414;-62
2021/04/01 04:34:58;;;;;;;9.30;6.73;;;;;;;14.60;51.29;96585.03;5120466;27;20446;-62
2021/04/01 04:37:24;;;;;;;7.30;6.43;;;;;;;14.66;51.41;96582.19;5130614;27;20490;-62
2021/04/01 04:39:49;;;;;;;8.67;6.60;;;;;;;14.58;51.57;96579.97;5114369;28;20197;-62
2021/04/01 04:42:15;;;;;;;12.23;6.80;;;;;;;14.60;51.83;96590.31;5114446;28;20164;-60
2021/04/01 04:44:40;;;;;;;9.00;6.70;;;;;;;14.59;51.44;96592.13;5114525;28;20165;-60
2021/04/01 04:47:06;;;;;;;8.50;6.57;;;;;;;14.52;51.70;96596.81;5113879;28;20686;-63
2021/04/01 04:49:31;;;;;;;9.40;6.70;;;;;;;14.42;52.01;96600.09;5114065;28;20264;-60
2021/04/01 04:51:57;;;;;;;8.53;6.60;;;;;;;14.33;52.06;96596.28;5115353;27;20222;-61
2021/04/01 04:54:22;;;;;;;7.73;6.80;;;;;;;14.39;52.00;96595.31;5114127;27;20177;-62
2021/04/01 04:56:50;;;;;;;7.53;6.83;;;;;;;14.41;52.33;96595.88;5114074;28;20696;-60
2021/04/01 04:59:39;;;;;;;10.03;6.97;;;;;;;14.38;52.65;96600.84;5113885;28;20185;-60
2021/04/01 05:04:55;;;;;;;7.80;6.10;;;;;;;14.38;53.38;96601.63;5113782;28;20410;-60
2021/04/01 05:07:21;;;;;;;9.80;6.20;;;;;;;14.38;53.23;96601.63;5113834;28;20399;-62
2021/04/01 05:09:46;;;;;;;7.40;5.90;;;;;;;14.36;52.91;96601.09;5114004;28;20424;-62
2021/04/01 05:12:13;;;;;;;9.53;7.00;;;;;;;14.36;52.89;96605.59;5114251;28;20178;-62
2021/04/01 05:14:39;;;;;;;8.00;6.40;;;;;;;14.36;54.15;96601.09;5113852;28;20248;-62
2021/04/01 05:17:05;;;;;;;9.83;6.50;;;;;;;14.35;54.43;96602.13;5113631;28;20533;-62
2021/04/01 05:19:32;;;;;;;7.80;6.73;;;;;;;14.42;54.39;96600.09;5113915;28;20189;-62
2021/04/01 05:24:26;;;;;;;10.53;6.60;;;;;;;14.55;54.03;96606.91;5113806;28;20412;-61
2021/04/01 05:29:24;;;;;;;9.80;6.67;;;;;;;14.59;54.10;96607.19;5134270;27;20437;-62
2021/04/01 05:31:50;;;;;;;11.40;6.80;;;;;;;14.52;53.63;96611.88;5129056;27;20416;-60
2021/04/01 05:34:15;;;;;;;8.70;6.90;;;;;;;14.60;53.63;96611.47;5113547;28;20813;-62
2021/04/01 05:36:42;;;;;;;7.47;6.77;;;;;;;14.66;53.11;96608.63;5113668;28;20181;-62
2021/04/01 05:39:15;;;;;;;12.83;6.73;;;;;;;14.65;52.81;96612.34;5113227;28;20188;-62
2021/04/01 05:41:42;;;;;;;7.77;6.30;;;;;;;14.72;52.71;96614.78;5128674;28;20467;-61
2021/04/01 05:44:52;;;;;;;11.47;7.13;;;;;;;14.69;53.54;96612.66;5133692;27;20410;-62
2021/04/01 05:47:09;;;;;;;6.53;5.80;;;;;;;14.75;52.71;96614.28;5125154;28;20434;-61
2021/04/01 06:05:46;;;;;;;7.63;6.93;;;;;;;15.18;53.56;96630.19;5102474;27;20403;-61
2021/04/01 06:08:16;;;;;;;10.00;6.37;;;;;;;15.24;54.26;96622.03;5113414;28;20425;-60
2021/04/01 06:10:42;;;;;;;8.60;6.47;;;;;;;15.27;53.73;96624.19;5133962;27;20394;-62
2021/04/01 06:13:10;;;;;;;18.13;7.27;;;;;;;15.39;54.04;96614.28;5134543;27;20413;-60
2021/04/01 06:15:36;;;;;;;8.17;6.67;;;;;;;15.37;49.04;96615.56;5137571;27;20586;-62
2021/04/01 06:18:08;;;;;;;9.10;6.10;;;;;;;15.06;47.86;96622.38;5132156;27;20445;-60
2021/04/01 06:20:35;;;;;;;12.90;6.03;;;;;;;15.12;47.77;96626.69;5137808;27;20443;-60
2021/04/01 06:23:02;;;;;;;11.47;6.27;;;;;;;15.43;47.34;96617.25;5136383;27;20766;-61
2021/04/01 06:25:33;;;;;;;8.17;6.03;;;;;;;15.51;46.29;96614.13;5137602;27;20398;-62
2021/04/01 06:28:01;;;;;;;6.43;5.50;;;;;;;15.67;45.90;96615.88;5135875;27;20476;-62
2021/04/01 06:30:28;;;;;;;9.67;6.10;;;;;;;16.07;44.73;96615.47;5116936;28;20679;-61
2021/04/01 06:33:13;;;;;;;12.90;6.57;;;;;;;16.01;44.61;96619.09;5116959;28;20921;-62
2021/04/01 06:35:47;;;;;;;6.57;5.87;;;;;;;16.09;44.51;96616.78;5116879;28;20474;-62
2021/04/01 06:41:00;;;;;;;9.97;5.00;;;;;;;16.75;43.60;96610.09;5137588;27;20448;-62
2021/04/01 06:43:42;;;;;;;7.03;4.60;;;;;;;17.07;44.29;96623.22;5135516;27;20945;-62
2021/04/01 06:46:08;;;;;;;7.10;5.00;;;;;;;17.29;45.90;96621.19;5130889;27;20500;-62
2021/04/01 06:51:17;;;;;;;6.83;6.17;;;;;;;17.69;47.27;96616.00;5137040;27;20401;-61
2021/04/01 06:54:01;;;;;;;6.90;5.20;;;;;;;17.86;48.07;96613.09;5137305;27;20402;-61
2021/04/01 06:59:18;;;;;;;6.57;4.93;;;;;;;18.04;43.20;96608.06;5116086;28;20434;-62
2021/04/01 07:01:53;;;;;;;6.50;5.33;;;;;;;18.29;43.28;96610.69;5116659;28;20773;-60
2021/04/01 07:04:22;;;;;;;5.63;4.60;;;;;;;18.39;42.33;96610.66;5116395;28;20966;-61
2021/04/01 07:06:54;;;;;;;6.53;4.97;;;;;;;18.58;42.79;96616.25;5116268;28;20399;-61
2021/04/01 07:12:13;;;;;;;8.70;5.00;;;;;;;18.84;43.80;96607.13;5136791;27;20402;-62
2021/04/01 07:14:41;;;;;;;6.80;5.00;;;;;;;18.95;43.76;96613.22;5128733;27;20419;-62
2021/04/01 07:17:28;;;;;;;5.83;5.30;;;;;;;19.05;44.78;96611.31;5115643;28;20439;-64
2021/04/01 07:45:06;;;;;;;9.07;5.60;;;;;;;19.58;42.51;96599.09;5135788;27;20586;-60
2021/04/01 07:47:40;;;;;;;4.80;4.23;;;;;;;19.60;41.61;96612.94;5119461;27;20453;-62
2021/04/01 07:50:14;;;;;;;6.20;3.63;;;;;;;19.56;41.68;96613.75;5115289;28;20492;-62
2021/04/01 07:52:41;;;;;;;4.60;3.70;;;;;;;19.76;41.30;96608.31;5115180;27;20415;-60
2021/04/01 07:55:23;;;;;;;4.73;3.67;;;;;;;20.02;41.40;96609.72;5115398;28;20400;-62
2021/04/01 08:00:42;;;;;;;4.60;3.57;;;;;;;20.14;41.59;96607.47;5118083;27;20430;-64
2021/04/01 08:05:56;;;;;;;3.93;3.40;;;;;;;20.57;40.31;96608.44;5115346;27;20387;-66
2021/04/01 08:08:23;;;;;;;5.23;2.87;;;;;;;20.50;39.77;96603.44;5128619;27;20492;-62
2021/04/01 08:10:49;;;;;;;3.90;3.20;;;;;;;20.60;39.64;96607.91;5131247;27;20418;-64
2021/04/01 08:13:25;;;;;;;3.53;2.77;;;;;;;20.70;39.69;96599.75;5114196;27;20430;-64
2021/04/01 08:15:55;;;;;;;3.60;3.30;;;;;;;20.74;39.16;96606.13;5123588;27;20531;-66
2021/04/01 08:18:34;;;;;;;3.47;3.17;;;;;;;20.86;38.27;96609.19;5123951;27;20526;-65
2021/04/01 08:21:04;;;;;;;4.13;3.10;;;;;;;20.93;38.43;96604.31;5111545;27;20524;-65
2021/04/01 08:26:23;;;;;;;7.33;3.43;;;;;;;20.48;38.18;96598.38;5123874;27;20536;-63
2021/04/01 08:34:40;;;;;;;9.20;3.40;;;;;;;20.82;36.97;96602.84;5063536;28;20433;-66
2021/04/01 08:37:08;;;;;;;3.67;2.60;;;;;;;20.84;36.94;96606.00;5063709;28;20480;-65
2021/04/01 08:39:37;;;;;;;5.60;3.40;;;;;;;20.71;37.08;96601.38;5083797;28;20470;-66
2021/04/01 08:42:06;;;;;;;5.83;3.30;;;;;;;20.89;36.88;96597.97;5114339;27;20442;-64
2021/04/01 08:45:19;;;;;;;4.83;3.03;;;;;;;20.94;37.60;96597.91;5125580;27;20780;-65
2021/04/01 08:48:08;;;;;;;3.30;3.00;;;;;;;21.25;37.22;96599.94;5115084;27;20438;-65
2021/04/01 08:50:36;;;;;;;4.70;3.10;;;;;;;21.60;36.22;96598.66;5091404;28;20470;-64
2021/04/01 08:53:35;;;;;;;3.70;2.80;;;;;;;21.61;36.38;96600.28;5110377;27;20479;-64
2021/04/01 08:56:20;;;;;;;4.93;3.10;;;;;;;21.58;36.01;96592.03;5112455;27;20553;-64
2021/04/01 08:58:59;;;;;;;4.27;2.87;;;;;;;22.12;35.70;96595.75;5110219;28;20449;-66
2021/04/01 09:01:29;;;;;;;3.70;2.87;;;;;;;22.25;35.94;96591.50;5111461;27;20414;-67
2021/04/01 09:03:59;;;;;;;3.83;3.20;;;;;;;22.37;35.29;96586.50;5129297;27;20508;-67
2021/04/01 09:06:30;;;;;;;3.30;3.07;;;;;;;22.20;34.72;96597.75;5124380;27;20418;-67
2021/04/01 09:09:04;;;;;;;3.87;2.83;;;;;;;22.24;34.98;96598.78;5110630;28;20431;-66
2021/04/01 09:14:14;;;;;;;5.27;3.33;;;;;;;22.58;35.01;96590.44;5126049;27;20571;-64
2021/04/01 09:16:43;;;;;;;4.77;3.30;;;;;;;22.36;35.34;96588.38;5122591;27;20478;-67
2021/04/01 09:19:13;;;;;;;8.93;3.60;;;;;;;22.49;35.13;96590.28;5116876;27;20500;-62
2021/04/01 09:21:41;;;;;;;5.17;3.53;;;;;;;22.68;34.45;96584.91;5121033;27;20419;-66
2021/04/01 09:24:11;;;;;;;3.47;3.17;;;;;;;23.08;35.06;96581.41;5110032;28;20442;-66
2021/04/01 09:26:44;;;;;;;5.40;3.40;;;;;;;23.25;34.70;96580.78;5115581;28;20418;-67
2021/04/01 09:29:10;;;;;;;6.77;3.73;;;;;;;23.55;34.70;96579.38;5108976;28;20454;-64
2021/04/01 09:31:47;;;;;;;5.97;3.17;;;;;;;23.44;34.00;96581.50;5113942;28;20909;-66
2021/04/01 09:34:16;;;;;;;3.77;3.30;;;;;;;23.59;33.95;96577.69;5114539;28;20180;-66
2021/04/01 09:36:43;;;;;;;5.50;3.50;;;;;;;23.75;34.02;96581.63;5123374;27;20540;-64
2021/04/01 09:41:45;;;;;;;3.77;3.00;;;;;;;23.81;33.41;96583.06;5132191;27;20410;-62
2021/04/01 09:44:10;;;;;;;6.03;3.20;;;;;;;23.93;33.52;96583.34;5120768;27;20458;-64
2021/04/01 09:46:47;;;;;;;4.40;3.40;;;;;;;23.76;33.92;96577.81;5112677;28;20478;-61
2021/04/01 09:49:18;;;;;;;3.47;2.53;;;;;;;24.00;33.97;96576.47;5127393;27;20214;-62
2021/04/01 09:51:53;;;;;;;6.43;3.20;;;;;;;24.23;35.46;96585.31;5133600;27;20429;-61
2021/04/01 09:54:18;;;;;;;9.07;5.17;;;;;;;24.36;35.26;96579.88;5128764;27;20434;-61
2021/04/01 09:56:53;;;;;;;6.97;5.30;;;;;;;24.19;34.69;96577.06;5125666;27;20457;-64
2021/04/01 09:59:21;;;;;;;10.30;5.17;;;;;;;24.30;36.46;96574.91;5136692;27;20449;-61
2021/04/01 10:02:01;;;;;;;6.70;4.70;;;;;;;24.20;35.17;96575.19;5130235;27;20433;-62
2021/04/01 10:04:33;;;;;;;8.80;4.80;;;;;;;24.35;34.51;96564.81;5127267;27;20437;-64
2021/04/01 10:07:11;;;;;;;7.30;4.90;;;;;;;24.43;34.38;96565.97;5121324;27;20455;-61
2021/04/01 10:09:48;;;;;;;6.03;5.50;;;;;;;24.26;35.31;96566.69;5127205;27;20458;-61
2021/04/01 10:12:16;;;;;;;7.33;5.00;;;;;;;24.29;36.06;96552.66;5127474;27;20441;-64
2021/04/01 10:14:52;;;;;;;6.27;4.77;;;;;;;24.73;35.52;96549.06;5130537;27;20449;-61
2021/04/01 10:17:20;;;;;;;4.50;3.60;;;;;;;24.90;33.81;96548.34;5117459;27;20918;-61
2021/04/01 10:19:59;;;;;;;6.67;3.80;;;;;;;25.19;33.64;96546.69;5125637;27;20472;-60
2021/04/01 10:22:28;;;;;;;5.97;4.40;;;;;;;25.36;32.78;96544.00;5115827;27;20460;-60
2021/04/01 10:25:19;;;;;;;5.90;4.43;;;;;;;25.40;33.69;96536.91;5116968;28;20403;-60
2021/04/01 10:28:09;;;;;;;5.50;4.00;;;;;;;25.68;32.65;96532.03;5115963;27;20426;-64
2021/04/01 10:30:35;;;;;;;6.10;4.00;;;;;;;25.77;32.05;96524.72;5134129;27;20513;-60
2021/04/01 10:33:07;;;;;;;11.20;4.60;;;;;;;25.96;31.85;96524.41;5133708;27;20458;-64
2021/04/01 10:35:36;;;;;;;4.70;3.77;;;;;;;26.12;31.14;96525.50;5125695;27;20260;-64
2021/04/01 10:38:04;;;;;;;7.90;4.13;;;;;;;26.27;31.94;96522.31;5116377;28;20411;-60
2021/04/01 10:40:31;;;;;;;8.07;4.23;;;;;;;26.45;31.75;96516.53;5131410;27;20434;-61
2021/04/01 10:43:18;;;;;;;4.50;3.70;;;;;;;26.60;30.77;96517.88;5127931;27;20808;-64
2021/04/01 10:45:46;;;;;;;6.83;3.87;;;;;;;26.73;31.79;96514.22;5116635;28;20407;-62
2021/04/01 10:48:35;;;;;;;6.40;4.10;;;;;;;26.83;30.19;96503.06;5126087;27;20492;-63
2021/04/01 10:51:07;;;;;;;5.47;4.00;;;;;;;26.83;29.66;96497.66;5117511;27;20435;-64
2021/04/01 10:53:38;;;;;;;6.40;4.23;;;;;;;26.87;31.09;96503.22;5116669;28;20406;-68
2021/04/01 10:56:05;;;;;;;5.53;4.73;;;;;;;27.06;29.65;96490.88;5117022;27;20962;-68
2021/04/01 10:58:31;;;;;;;8.70;4.13;;;;;;;27.13;30.76;96498.44;5121645;27;20499;-64
2021/04/01 11:01:01;;;;;;;4.67;3.03;;;;;;;26.58;28.25;96500.47;5133809;27;20506;-64
2021/04/01 11:03:31;;;;;;;5.27;2.50;;;;;;;26.11;28.47;96496.97;5120479;27;20434;-65
2021/04/01 11:06:00;;;;;;;4.50;3.30;;;;;;;25.92;29.24;96497.31;5123625;27;20828;-64
2021/04/01 11:08:29;;;;;;;3.07;2.77;;;;;;;26.07;29.09;96488.72;5115296;27;20550;-65
2021/04/01 11:11:00;;;;;;;3.80;3.10;;;;;;;26.27;29.63;96490.72;5126029;27;20426;-64
2021/04/01 11:13:33;;;;;;;3.83;2.20;;;;;;;26.16;28.75;96486.81;5124957;27;20496;-66
2021/04/01 11:16:02;;;;;;;3.07;2.47;;;;;;;26.48;27.63;96487.34;5118850;27;20515;-66
2021/04/01 11:18:28;;;;;;;6.00;2.17;;;;;;;26.42;26.90;96481.31;5118471;27;20462;-68
2021/04/01 11:20:55;;;;;;;2.70;2.13;;;;;;;26.54;27.07;96478.75;5117182;27;20431;-69
2021/04/01 11:23:28;;;;;;;3.70;2.30;;;;;;;26.82;28.67;96479.09;5136370;27;20179;-68
2021/04/01 11:25:59;;;;;;;3.60;2.60;;;;;;;27.00;27.21;96475.97;5115654;27;20518;-63
2021/04/01 11:28:33;;;;;;;2.03;1.93;;;;;;;27.25;27.35;96471.50;5115333;28;20438;-65
2021/04/01 11:30:59;;;;;;;1.87;1.70;;;;;;;26.66;26.67;96465.38;5118043;27;20438;-67
2021/04/01 11:33:25;;;;;;;3.60;2.13;;;;;;;26.50;26.41;96466.22;5115812;28;20418;-64
2021/04/01 11:36:08;;;;;;;2.60;2.30;;;;;;;26.30;26.86;96460.47;5116460;28;20197;-64
2021/04/01 11:38:43;;;;;;;3.00;2.37;;;;;;;26.69;28.50;96459.34;5115200;28;20435;-63
2021/04/01 11:41:21;;;;;;;3.10;2.50;;;;;;;26.63;28.21;96465.22;5132563;27;20426;-63
2021/04/01 11:43:55;;;;;;;4.80;2.27;;;;;;;26.46;29.75;96463.41;5115019;27;20431;-65
2021/04/01 11:46:28;;;;;;;3.53;2.60;;;;;;;26.49;27.51;96454.66;5113939;28;20418;-66
2021/04/01 11:48:55;;;;;;;5.13;2.73;;;;;;;26.66;26.84;96448.38;5112849;27;20859;-64
2021/04/01 11:51:27;;;;;;;3.37;2.80;;;;;;;27.14;28.04;96454.94;5119358;27;20928;-65
2021/04/01 11:53:53;;;;;;;5.27;3.00;;;;;;;26.88;26.92;96456.22;5113397;27;20437;-64
2021/04/01 11:56:19;;;;;;;4.73;2.50;;;;;;;26.86;28.34;96447.66;5114542;27;20814;-64
2021/04/01 11:58:45;;;;;;;3.10;2.90;;;;;;;27.20;28.13;96456.31;5116913;27;20903;-64
2021/04/01 12:01:30;;;;;;;4.90;2.83;;;;;;;27.86;27.62;96446.41;5114323;27;20867;-64
2021/04/01 12:04:05;;;;;;;3.87;3.57;;;;;;;28.22;26.34;96435.69;5118898;27;20565;-63
2021/04/01 12:06:31;;;;;;;4.53;2.53;;;;;;;28.33;25.86;96430.63;5113563;27;20486;-64
2021/04/01 12:08:57;;;;;;;2.47;2.03;;;;;;;28.24;25.73;96435.34;5112315;27;20970;-65
2021/04/01 12:11:24;;;;;;;2.73;2.17;;;;;;;28.65;26.19;96429.75;5110033;27;20431;-63
2021/04/01 12:13:50;;;;;;;2.60;2.10;;;;;;;29.00;25.24;96422.72;5110708;27;20289;-65
2021/04/01 12:16:17;;;;;;;3.33;2.50;;;;;;;29.34;25.44;96419.47;5111141;28;20562;-65
2021/04/01 12:18:44;;;;;;;3.10;2.80;;;;;;;29.69;25.03;96424.34;5112579;27;20810;-64
2021/04/01 12:21:09;;;;;;;2.57;2.33;;;;;;;29.65;24.11;96421.50;5111761;27;20815;-64
2021/04/01 12:23:45;;;;;;;3.27;2.40;;;;;;;29.92;24.05;96414.50;5111983;27;20434;-66
2021/04/01 12:26:11;;;;;;;3.07;2.20;;;;;;;29.98;24.22;96422.03;5125865;27;20303;-66
2021/04/01 12:28:37;;;;;;;2.40;2.00;;;;;;;29.66;24.21;96412.22;5109805;27;20554;-65
2021/04/01 12:31:03;;;;;;;3.33;2.50;;;;;;;29.79;24.54;96415.69;5110366;28;20653;-69
2021/04/01 12:33:29;;;;;;;2.40;2.20;;;;;;;29.84;24.23;96410.03;5120133;27;20222;-67
2021/04/01 12:35:59;;;;;;;2.43;2.23;;;;;;;30.13;24.35;96404.22;5119682;27;20603;-67
2021/04/01 12:38:35;;;;;;;4.80;2.27;;;;;;;30.52;23.07;96394.31;5112617;27;21038;-68
2021/04/01 12:41:09;;;;;;;3.07;2.60;;;;;;;30.70;23.59;96403.63;5121804;27;20430;-69
2021/04/01 12:43:37;;;;;;;4.30;2.57;;;;;;;30.85;23.37;96397.44;5129059;27;20430;-62
2021/04/01 12:46:03;;;;;;;2.37;2.17;;;;;;;30.67;23.29;96391.59;5134953;27;20394;-65
2021/04/01 12:48:39;;;;;;;3.33;2.83;;;;;;;30.94;23.07;96395.31;5116785;27;20473;-65
2021/04/01 12:51:05;;;;;;;3.10;2.30;;;;;;;31.07;22.77;96391.31;5119422;27;20889;-63
2021/04/01 12:53:32;;;;;;;3.93;2.63;;;;;;;31.20;22.88;96393.53;5119275;27;20435;-64
2021/04/01 12:56:05;;;;;;;3.70;2.80;;;;;;;31.12;23.24;96394.53;5134309;27;20487;-67
2021/04/01 12:58:39;;;;;;;3.20;2.90;;;;;;;31.17;23.46;96393.47;5125162;27;20454;-67
2021/04/01 13:01:26;;;;;;;4.37;2.60;;;;;;;31.06;23.37;96384.28;5111761;28;20438;-68
2021/04/01 13:03:53;;;;;;;3.27;2.97;;;;;;;31.12;23.17;96399.19;5113296;27;20896;-66
2021/04/01 13:06:29;;;;;;;2.73;2.53;;;;;;;31.38;22.61;96380.31;5127598;27;20950;-68
2021/04/01 13:11:25;;;;;;;4.70;3.20;;;;;;;31.77;22.08;96379.16;5120040;27;20441;-65
2021/04/01 13:13:51;;;;;;;5.87;2.83;;;;;;;31.76;22.29;96372.13;5132995;27;20441;-64
2021/04/01 13:16:17;;;;;;;3.43;2.80;;;;;;;31.66;22.00;96394.47;5126595;27;21236;-67
2021/04/01 13:18:42;;;;;;;4.93;3.40;;;;;;;31.31;21.83;96378.22;5114505;28;20451;-67